sensor_id;sensor_type;location;lat;lon;timestamp;pressure;altitude;pressure_sealevel;temperature;humidity
9187;BME280;7273;48.902;9.410;2023-08-17T00:00:26;98164.72;;;20.81;75.78
9187;BME280;7273;48.902;9.410;2023-08-17T00:02:51;98157.72;;;20.72;76.05
9187;BME280;7273;48.902;9.410;2023-08-17T00:05:17;98160.59;;;20.75;76.08
9187;BME280;7273;48.902;9.410;2023-08-17T00:07:43;98168.84;;;20.75;76.18
9187;BME280;7273;48.902;9.410;2023-08-17T00:10:09;98165.47;;;20.70;76.29
9187;BME280;7273;48.902;9.410;2023-08-17T00:12:35;98168.91;;;20.67;76.28
9187;BME280;7273;48.902;9.410;2023-08-17T00:15:00;98168.31;;;20.61;76.37
9187;BME280;7273;48.902;9.410;2023-08-17T00:17:26;98165.69;;;20.65;75.97
9187;BME280;7273;48.902;9.410;2023-08-17T00:19:52;98163.03;;;20.56;76.27
9187;BME280;7273;48.902;9.410;2023-08-17T00:22:17;98156.69;;;20.44;76.81
9187;BME280;7273;48.902;9.410;2023-08-17T00:24:43;98147.13;;;20.29;77.18
9187;BME280;7273;48.902;9.410;2023-08-17T00:27:10;98149.41;;;20.27;77.24
9187;BME280;7273;48.902;9.410;2023-08-17T00:29:36;98147.69;;;20.23;77.34
9187;BME280;7273;48.902;9.410;2023-08-17T00:32:03;98153.22;;;20.14;77.56
9187;BME280;7273;48.902;9.410;2023-08-17T00:34:29;98136.31;;;20.03;77.99
9187;BME280;7273;48.902;9.410;2023-08-17T00:36:55;98138.16;;;19.99;78.15
9187;BME280;7273;48.902;9.410;2023-08-17T00:39:20;98139.50;;;19.93;78.20
9187;BME280;7273;48.902;9.410;2023-08-17T00:41:46;98137.53;;;19.94;78.31
9187;BME280;7273;48.902;9.410;2023-08-17T00:44:12;98137.53;;;19.94;78.00
9187;BME280;7273;48.902;9.410;2023-08-17T00:46:38;98141.56;;;19.96;77.90
9187;BME280;7273;48.902;9.410;2023-08-17T00:49:05;98137.69;;;19.97;77.84
9187;BME280;7273;48.902;9.410;2023-08-17T00:51:31;98143.84;;;19.94;77.87
9187;BME280;7273;48.902;9.410;2023-08-17T00:54:01;98145.09;;;19.97;77.92
9187;BME280;7273;48.902;9.410;2023-08-17T00:56:27;98144.47;;;20.00;77.85
9187;BME280;7273;48.902;9.410;2023-08-17T00:58:55;98153.97;;;20.02;77.58
9187;BME280;7273;48.902;9.410;2023-08-17T01:01:20;98155.56;;;20.03;77.46
9187;BME280;7273;48.902;9.410;2023-08-17T01:03:46;98137.00;;;20.00;77.87
9187;BME280;7273;48.902;9.410;2023-08-17T01:06:12;98139.63;;;19.97;77.90
9187;BME280;7273;48.902;9.410;2023-08-17T01:08:38;98135.22;;;20.04;77.89
9187;BME280;7273;48.902;9.410;2023-08-17T01:16:27;98138.44;;;20.07;78.05
9187;BME280;7273;48.902;9.410;2023-08-17T01:18:55;98127.09;;;20.08;77.81
9187;BME280;7273;48.902;9.410;2023-08-17T01:21:24;98132.25;;;20.10;77.61
9187;BME280;7273;48.902;9.410;2023-08-17T01:23:50;98125.16;;;20.08;77.67
9187;BME280;7273;48.902;9.410;2023-08-17T01:26:16;98125.69;;;20.02;78.04
9187;BME280;7273;48.902;9.410;2023-08-17T01:28:44;98122.50;;;20.00;77.90
9187;BME280;7273;48.902;9.410;2023-08-17T01:31:30;98121.06;;;19.94;78.95
9187;BME280;7273;48.902;9.410;2023-08-17T01:34:03;98122.22;;;19.93;78.44
9187;BME280;7273;48.902;9.410;2023-08-17T01:36:30;98120.94;;;19.90;78.44
9187;BME280;7273;48.902;9.410;2023-08-17T01:38:57;98118.31;;;19.94;78.18
9187;BME280;7273;48.902;9.410;2023-08-17T01:41:25;98118.81;;;19.96;78.30
9187;BME280;7273;48.902;9.410;2023-08-17T01:43:51;98121.22;;;19.97;78.19
9187;BME280;7273;48.902;9.410;2023-08-17T01:46:18;98115.72;;;19.97;78.23
9187;BME280;7273;48.902;9.410;2023-08-17T01:48:45;98108.75;;;20.00;78.24
9187;BME280;7273;48.902;9.410;2023-08-17T01:51:15;98111.81;;;19.98;78.31
9187;BME280;7273;48.902;9.410;2023-08-17T01:53:41;98095.34;;;19.98;78.41
9187;BME280;7273;48.902;9.410;2023-08-17T01:56:06;98101.66;;;19.99;78.49
9187;BME280;7273;48.902;9.410;2023-08-17T01:58:32;98099.31;;;19.89;78.80
9187;BME280;7273;48.902;9.410;2023-08-17T02:00:57;98108.41;;;19.81;78.85
9187;BME280;7273;48.902;9.410;2023-08-17T02:03:22;98110.69;;;19.79;79.14
9187;BME280;7273;48.902;9.410;2023-08-17T02:05:48;98113.09;;;19.80;78.91
9187;BME280;7273;48.902;9.410;2023-08-17T02:08:13;98102.94;;;19.81;78.77
9187;BME280;7273;48.902;9.410;2023-08-17T02:10:39;98115.19;;;19.83;78.64
9187;BME280;7273;48.902;9.410;2023-08-17T02:13:04;98108.75;;;19.79;78.95
9187;BME280;7273;48.902;9.410;2023-08-17T02:15:30;98117.47;;;19.81;78.83
9187;BME280;7273;48.902;9.410;2023-08-17T02:17:59;98109.72;;;19.83;78.71
9187;BME280;7273;48.902;9.410;2023-08-17T02:20:24;98109.72;;;19.83;78.86
9187;BME280;7273;48.902;9.410;2023-08-17T02:22:49;98101.91;;;19.85;78.74
9187;BME280;7273;48.902;9.410;2023-08-17T02:25:15;98102.06;;;19.89;78.89
9187;BME280;7273;48.902;9.410;2023-08-17T02:27:40;98102.88;;;19.89;78.78
9187;BME280;7273;48.902;9.410;2023-08-17T02:30:06;98099.31;;;19.89;78.85
9187;BME280;7273;48.902;9.410;2023-08-17T02:32:31;98093.16;;;19.92;78.88
9187;BME280;7273;48.902;9.410;2023-08-17T02:34:57;98090.53;;;19.95;78.88
9187;BME280;7273;48.902;9.410;2023-08-17T02:37:22;98094.44;;;19.94;79.04
9187;BME280;7273;48.902;9.410;2023-08-17T02:39:47;98088.47;;;19.92;79.21
9187;BME280;7273;48.902;9.410;2023-08-17T02:42:13;98095.66;;;19.85;79.46
9187;BME280;7273;48.902;9.410;2023-08-17T02:44:38;98084.81;;;19.88;79.42
9187;BME280;7273;48.902;9.410;2023-08-17T02:47:04;98087.34;;;19.93;79.13
9187;BME280;7273;48.902;9.410;2023-08-17T02:49:29;98093.94;;;19.92;79.06
9187;BME280;7273;48.902;9.410;2023-08-17T02:51:55;98085.34;;;19.82;79.46
9187;BME280;7273;48.902;9.410;2023-08-17T02:54:20;98089.41;;;19.76;79.64
9187;BME280;7273;48.902;9.410;2023-08-17T02:56:45;98086.09;;;19.70;79.80
9187;BME280;7273;48.902;9.410;2023-08-17T02:59:11;98081.91;;;19.64;80.04
9187;BME280;7273;48.902;9.410;2023-08-17T03:01:36;98079.44;;;19.71;79.79
9187;BME280;7273;48.902;9.410;2023-08-17T03:04:01;98077.16;;;19.73;79.76
9187;BME280;7273;48.902;9.410;2023-08-17T03:06:27;98078.03;;;19.65;79.85
9187;BME280;7273;48.902;9.410;2023-08-17T03:08:52;98076.75;;;19.63;80.12
9187;BME280;7273;48.902;9.410;2023-08-17T03:11:19;98074.81;;;19.63;80.07
9187;BME280;7273;48.902;9.410;2023-08-17T03:13:45;98069.06;;;19.56;80.43
9187;BME280;7273;48.902;9.410;2023-08-17T03:16:12;98062.47;;;19.57;80.32
9187;BME280;7273;48.902;9.410;2023-08-17T03:18:38;98059.03;;;19.60;80.21
9187;BME280;7273;48.902;9.410;2023-08-17T03:21:03;98056.28;;;19.60;80.32
9187;BME280;7273;48.902;9.410;2023-08-17T03:23:29;98061.78;;;19.60;80.32
9187;BME280;7273;48.902;9.410;2023-08-17T03:25:54;98054.47;;;19.64;80.24
9187;BME280;7273;48.902;9.410;2023-08-17T03:28:19;98055.28;;;19.65;80.24
9187;BME280;7273;48.902;9.410;2023-08-17T03:30:45;98062.69;;;19.64;80.20
9187;BME280;7273;48.902;9.410;2023-08-17T03:33:10;98065.09;;;19.66;80.35
9187;BME280;7273;48.902;9.410;2023-08-17T03:35:36;98056.53;;;19.67;80.29
9187;BME280;7273;48.902;9.410;2023-08-17T03:38:01;98059.09;;;19.72;80.23
9187;BME280;7273;48.902;9.410;2023-08-17T03:40:27;98061.50;;;19.74;80.35
9187;BME280;7273;48.902;9.410;2023-08-17T03:42:52;98053.72;;;19.76;80.30
9187;BME280;7273;48.902;9.410;2023-08-17T03:45:18;98053.53;;;19.81;80.13
9187;BME280;7273;48.902;9.410;2023-08-17T03:47:43;98058.00;;;19.85;80.13
9187;BME280;7273;48.902;9.410;2023-08-17T03:50:09;98051.03;;;19.88;80.12
9187;BME280;7273;48.902;9.410;2023-08-17T03:52:35;98057.78;;;19.90;80.13
9187;BME280;7273;48.902;9.410;2023-08-17T03:55:00;98066.97;;;19.94;80.08
9187;BME280;7273;48.902;9.410;2023-08-17T03:57:26;98065.81;;;19.95;80.18
9187;BME280;7273;48.902;9.410;2023-08-17T03:59:51;98075.00;;;19.99;80.08
9187;BME280;7273;48.902;9.410;2023-08-17T04:02:16;98074.19;;;19.99;80.20
9187;BME280;7273;48.902;9.410;2023-08-17T04:04:42;98072.72;;;20.01;80.27
9187;BME280;7273;48.902;9.410;2023-08-17T04:07:07;98077.88;;;20.03;80.22
9187;BME280;7273;48.902;9.410;2023-08-17T04:09:33;98087.38;;;20.05;80.36
9187;BME280;7273;48.902;9.410;2023-08-17T04:11:59;98084.63;;;20.05;80.36
9187;BME280;7273;48.902;9.410;2023-08-17T04:14:24;98086.91;;;20.03;80.51
9187;BME280;7273;48.902;9.410;2023-08-17T04:16:50;98085.19;;;19.99;80.63
9187;BME280;7273;48.902;9.410;2023-08-17T04:19:16;98089.06;;;19.98;80.71
9187;BME280;7273;48.902;9.410;2023-08-17T04:21:41;98093.28;;;19.95;80.77
9187;BME280;7273;48.902;9.410;2023-08-17T04:24:07;98087.91;;;19.99;80.69
9187;BME280;7273;48.902;9.410;2023-08-17T04:26:32;98097.44;;;20.01;80.50
9187;BME280;7273;48.902;9.410;2023-08-17T04:28:57;98095.63;;;20.05;80.58
9187;BME280;7273;48.902;9.410;2023-08-17T04:31:23;98096.78;;;20.04;80.47
9187;BME280;7273;48.902;9.410;2023-08-17T04:33:48;98103.50;;;20.07;80.64
9187;BME280;7273;48.902;9.410;2023-08-17T04:36:14;98102.06;;;20.10;80.55
9187;BME280;7273;48.902;9.410;2023-08-17T04:38:39;98106.72;;;20.09;80.71
9187;BME280;7273;48.902;9.410;2023-08-17T04:41:04;98102.50;;;20.12;80.51
9187;BME280;7273;48.902;9.410;2023-08-17T04:43:30;98108.47;;;20.14;80.60
9187;BME280;7273;48.902;9.410;2023-08-17T04:45:55;98101.91;;;20.06;80.79
9187;BME280;7273;48.902;9.410;2023-08-17T04:48:21;98105.69;;;20.01;80.86
9187;BME280;7273;48.902;9.410;2023-08-17T04:50:46;98115.09;;;19.92;81.23
9187;BME280;7273;48.902;9.410;2023-08-17T04:53:11;98118.19;;;19.90;81.40
9187;BME280;7273;48.902;9.410;2023-08-17T04:55:37;98124.03;;;19.89;81.52
9187;BME280;7273;48.902;9.410;2023-08-17T04:58:02;98125.66;;;19.90;81.27
9187;BME280;7273;48.902;9.410;2023-08-17T05:00:28;98115.78;;;19.89;81.43
9187;BME280;7273;48.902;9.410;2023-08-17T05:02:56;98124.28;;;19.96;81.33
9187;BME280;7273;48.902;9.410;2023-08-17T05:05:22;98120.53;;;20.00;81.07
9187;BME280;7273;48.902;9.410;2023-08-17T05:07:48;98124.22;;;20.04;81.02
9187;BME280;7273;48.902;9.410;2023-08-17T05:10:13;98122.88;;;20.11;81.15
9187;BME280;7273;48.902;9.410;2023-08-17T05:12:39;98117.84;;;20.13;81.07
9187;BME280;7273;48.902;9.410;2023-08-17T05:15:04;98114.13;;;20.17;81.18
9187;BME280;7273;48.902;9.410;2023-08-17T05:17:30;98115.84;;;20.22;81.11
9187;BME280;7273;48.902;9.410;2023-08-17T05:19:55;98111.28;;;20.26;81.06
9187;BME280;7273;48.902;9.410;2023-08-17T05:22:21;98106.72;;;20.30;81.09
9187;BME280;7273;48.902;9.410;2023-08-17T05:24:46;98111.56;;;20.33;81.03
9187;BME280;7273;48.902;9.410;2023-08-17T05:27:11;98111.09;;;20.31;81.34
9187;BME280;7273;48.902;9.410;2023-08-17T05:29:37;98107.19;;;20.32;81.37
9187;BME280;7273;48.902;9.410;2023-08-17T05:32:02;98114.41;;;20.36;81.25
9187;BME280;7273;48.902;9.410;2023-08-17T05:34:28;98104.56;;;20.35;81.32
9187;BME280;7273;48.902;9.410;2023-08-17T05:36:53;98112.00;;;20.35;81.41
9187;BME280;7273;48.902;9.410;2023-08-17T05:39:19;98113.84;;;20.31;81.58
9187;BME280;7273;48.902;9.410;2023-08-17T05:41:45;98119.06;;;20.24;81.73
9187;BME280;7273;48.902;9.410;2023-08-17T05:44:10;98120.69;;;20.25;81.85
9187;BME280;7273;48.902;9.410;2023-08-17T05:46:35;98125.38;;;20.24;82.06
9187;BME280;7273;48.902;9.410;2023-08-17T05:49:01;98118.59;;;20.22;82.30
9187;BME280;7273;48.902;9.410;2023-08-17T05:51:27;98115.50;;;20.23;82.29
9187;BME280;7273;48.902;9.410;2023-08-17T05:53:52;98125.03;;;20.26;82.20
9187;BME280;7273;48.902;9.410;2023-08-17T05:56:18;98117.50;;;20.35;82.19
9187;BME280;7273;48.902;9.410;2023-08-17T05:58:43;98122.44;;;20.41;81.98
9187;BME280;7273;48.902;9.410;2023-08-17T06:01:10;98122.44;;;20.41;82.06
9187;BME280;7273;48.902;9.410;2023-08-17T06:03:36;98126.88;;;20.34;82.36
9187;BME280;7273;48.902;9.410;2023-08-17T06:06:03;98131.22;;;20.35;82.56
9187;BME280;7273;48.902;9.410;2023-08-17T06:08:29;98130.34;;;20.43;82.27
9187;BME280;7273;48.902;9.410;2023-08-17T06:10:55;98131.75;;;20.49;82.08
9187;BME280;7273;48.902;9.410;2023-08-17T06:13:20;98131.53;;;20.54;82.13
9187;BME280;7273;48.902;9.410;2023-08-17T06:15:46;98131.34;;;20.59;82.19
9187;BME280;7273;48.902;9.410;2023-08-17T06:18:11;98127.09;;;20.61;82.27
9187;BME280;7273;48.902;9.410;2023-08-17T06:20:36;98131.13;;;20.64;82.11
9187;BME280;7273;48.902;9.410;2023-08-17T06:23:02;98135.94;;;20.67;81.99
9187;BME280;7273;48.902;9.410;2023-08-17T06:25:27;98132.50;;;20.70;82.04
9187;BME280;7273;48.902;9.410;2023-08-17T06:27:53;98144.75;;;20.72;82.16
9187;BME280;7273;48.902;9.410;2023-08-17T06:30:18;98145.69;;;20.76;82.03
9187;BME280;7273;48.902;9.410;2023-08-17T06:32:44;98148.91;;;20.78;82.20
9187;BME280;7273;48.902;9.410;2023-08-17T06:35:09;98151.78;;;20.82;82.35
9187;BME280;7273;48.902;9.410;2023-08-17T06:37:35;98143.19;;;20.83;82.12
9187;BME280;7273;48.902;9.410;2023-08-17T06:40:02;98142.59;;;20.78;82.65
9187;BME280;7273;48.902;9.410;2023-08-17T06:42:27;98135.59;;;20.80;82.63
9187;BME280;7273;48.902;9.410;2023-08-17T06:44:53;98137.22;;;20.81;82.62
9187;BME280;7273;48.902;9.410;2023-08-17T06:47:18;98129.53;;;20.87;82.43
9187;BME280;7273;48.902;9.410;2023-08-17T06:49:44;98129.78;;;20.94;82.28
9187;BME280;7273;48.902;9.410;2023-08-17T06:52:09;98138.47;;;20.84;82.60
9187;BME280;7273;48.902;9.410;2023-08-17T06:54:35;98146.72;;;20.84;82.58
9187;BME280;7273;48.902;9.410;2023-08-17T06:57:00;98137.13;;;20.90;82.44
9187;BME280;7273;48.902;9.410;2023-08-17T06:59:26;98134.94;;;20.95;82.27
9187;BME280;7273;48.902;9.410;2023-08-17T07:01:51;98137.63;;;21.04;82.13
9187;BME280;7273;48.902;9.410;2023-08-17T07:04:17;98135.47;;;21.09;82.20
9187;BME280;7273;48.902;9.410;2023-08-17T07:06:42;98133.38;;;21.18;82.04
9187;BME280;7273;48.902;9.410;2023-08-17T07:09:08;98140.81;;;21.18;82.22
9187;BME280;7273;48.902;9.410;2023-08-17T07:11:37;98139.81;;;21.22;82.08
9187;BME280;7273;48.902;9.410;2023-08-17T07:14:02;98143.81;;;21.25;81.89
9187;BME280;7273;48.902;9.410;2023-08-17T07:16:27;98146.81;;;21.32;81.79
9187;BME280;7273;48.902;9.410;2023-08-17T07:18:53;98148.16;;;21.38;81.76
9187;BME280;7273;48.902;9.410;2023-08-17T07:21:18;98146.69;;;21.41;81.34
9187;BME280;7273;48.902;9.410;2023-08-17T07:23:44;98154.38;;;21.47;81.18
9187;BME280;7273;48.902;9.410;2023-08-17T07:26:10;98152.78;;;21.34;81.69
9187;BME280;7273;48.902;9.410;2023-08-17T07:28:36;98151.63;;;21.35;81.79
9187;BME280;7273;48.902;9.410;2023-08-17T07:31:01;98145.41;;;21.38;81.79
9187;BME280;7273;48.902;9.410;2023-08-17T07:33:27;98148.41;;;21.57;81.44
9187;BME280;7273;48.902;9.410;2023-08-17T07:35:52;98148.28;;;21.54;81.78
9187;BME280;7273;48.902;9.410;2023-08-17T07:38:19;98145.28;;;21.71;81.46
9187;BME280;7273;48.902;9.410;2023-08-17T07:40:45;98141.25;;;21.80;81.11
9187;BME280;7273;48.902;9.410;2023-08-17T07:43:10;98139.44;;;21.84;81.18
9187;BME280;7273;48.902;9.410;2023-08-17T07:45:35;98142.66;;;21.86;81.01
9187;BME280;7273;48.902;9.410;2023-08-17T07:48:01;98145.69;;;21.97;80.83
9187;BME280;7273;48.902;9.410;2023-08-17T07:50:26;98149.25;;;22.09;80.66
9187;BME280;7273;48.902;9.410;2023-08-17T07:52:52;98141.72;;;22.22;80.46
9187;BME280;7273;48.902;9.410;2023-08-17T07:55:17;98137.66;;;22.31;80.38
9187;BME280;7273;48.902;9.410;2023-08-17T07:57:43;98139.72;;;22.34;80.37
9187;BME280;7273;48.902;9.410;2023-08-17T08:00:09;98136.59;;;22.36;80.41
9187;BME280;7273;48.902;9.410;2023-08-17T08:02:34;98133.19;;;22.39;80.30
9187;BME280;7273;48.902;9.410;2023-08-17T08:05:00;98137.63;;;22.43;80.18
9187;BME280;7273;48.902;9.410;2023-08-17T08:07:25;98136.78;;;22.55;80.00
9187;BME280;7273;48.902;9.410;2023-08-17T08:09:51;98137.16;;;22.69;79.71
9187;BME280;7273;48.902;9.410;2023-08-17T08:12:16;98141.09;;;22.68;79.85
9187;BME280;7273;48.902;9.410;2023-08-17T08:14:42;98137.47;;;22.80;79.68
9187;BME280;7273;48.902;9.410;2023-08-17T08:17:07;98138.34;;;22.84;79.68
9187;BME280;7273;48.902;9.410;2023-08-17T08:19:33;98136.84;;;22.86;79.79
9187;BME280;7273;48.902;9.410;2023-08-17T08:21:58;98132.41;;;22.97;79.70
9187;BME280;7273;48.902;9.410;2023-08-17T08:24:24;98135.00;;;23.06;79.53
9187;BME280;7273;48.902;9.410;2023-08-17T08:26:50;98138.25;;;23.11;79.38
9187;BME280;7273;48.902;9.410;2023-08-17T08:29:18;98136.06;;;23.17;79.53
9187;BME280;7273;48.902;9.410;2023-08-17T08:31:43;98138.63;;;23.25;79.47
9187;BME280;7273;48.902;9.410;2023-08-17T08:34:09;98126.91;;;23.28;79.62
9187;BME280;7273;48.902;9.410;2023-08-17T08:36:34;98129.94;;;23.39;79.48
9187;BME280;7273;48.902;9.410;2023-08-17T08:39:00;98124.19;;;23.47;79.64
9187;BME280;7273;48.902;9.410;2023-08-17T08:41:26;98131.94;;;23.57;79.45
9187;BME280;7273;48.902;9.410;2023-08-17T08:43:53;98132.78;;;23.77;79.20
9187;BME280;7273;48.902;9.410;2023-08-17T08:46:20;98131.22;;;23.95;78.94
9187;BME280;7273;48.902;9.410;2023-08-17T08:48:49;98130.31;;;24.07;78.71
9187;BME280;7273;48.902;9.410;2023-08-17T08:51:23;98127.50;;;24.22;78.66
9187;BME280;7273;48.902;9.410;2023-08-17T08:53:54;98126.94;;;24.36;78.42
9187;BME280;7273;48.902;9.410;2023-08-17T08:56:24;98135.63;;;24.53;78.09
9187;BME280;7273;48.902;9.410;2023-08-17T08:58:50;98130.53;;;24.74;78.20
9187;BME280;7273;48.902;9.410;2023-08-17T09:01:16;98129.78;;;24.77;77.99
9187;BME280;7273;48.902;9.410;2023-08-17T09:03:43;98132.78;;;24.91;77.71
9187;BME280;7273;48.902;9.410;2023-08-17T09:06:10;98130.34;;;25.09;77.60
9187;BME280;7273;48.902;9.410;2023-08-17T09:08:36;98129.31;;;25.17;77.34
9187;BME280;7273;48.902;9.410;2023-08-17T09:11:02;98132.97;;;25.25;77.54
9187;BME280;7273;48.902;9.410;2023-08-17T09:13:28;98131.44;;;25.27;77.57
9187;BME280;7273;48.902;9.410;2023-08-17T09:15:53;98125.03;;;25.46;77.21
9187;BME280;7273;48.902;9.410;2023-08-17T09:18:19;98133.59;;;25.60;76.73
9187;BME280;7273;48.902;9.410;2023-08-17T09:20:47;98129.25;;;25.62;76.41
9187;BME280;7273;48.902;9.410;2023-08-17T09:23:14;98127.59;;;25.58;76.59
9187;BME280;7273;48.902;9.410;2023-08-17T09:25:41;98134.97;;;25.47;77.15
9187;BME280;7273;48.902;9.410;2023-08-17T09:28:14;98132.19;;;25.73;76.61
9187;BME280;7273;48.902;9.410;2023-08-17T09:33:40;98131.44;;;26.02;76.03
9187;BME280;7273;48.902;9.410;2023-08-17T09:36:04;98127.28;;;25.89;76.67
9187;BME280;7273;48.902;9.410;2023-08-17T09:38:30;98126.19;;;25.97;76.26
9187;BME280;7273;48.902;9.410;2023-08-17T09:40:57;98121.72;;;26.15;75.61
9187;BME280;7273;48.902;9.410;2023-08-17T09:43:23;98126.22;;;26.26;75.26
9187;BME280;7273;48.902;9.410;2023-08-17T09:45:50;98121.47;;;26.27;75.80
9187;BME280;7273;48.902;9.410;2023-08-17T09:48:17;98113.22;;;26.34;75.83
9187;BME280;7273;48.902;9.410;2023-08-17T09:50:44;98118.22;;;26.55;75.37
9187;BME280;7273;48.902;9.410;2023-08-17T09:53:17;98110.28;;;26.53;75.38
9187;BME280;7273;48.902;9.410;2023-08-17T09:55:43;98110.34;;;26.60;75.48
9187;BME280;7273;48.902;9.410;2023-08-17T09:58:10;98101.50;;;26.48;75.70
9187;BME280;7273;48.902;9.410;2023-08-17T10:00:46;98111.00;;;26.83;74.87
9187;BME280;7273;48.902;9.410;2023-08-17T10:03:14;98098.47;;;27.00;74.47
9187;BME280;7273;48.902;9.410;2023-08-17T10:05:41;98103.72;;;27.08;74.12
9187;BME280;7273;48.902;9.410;2023-08-17T10:08:07;98098.63;;;27.17;73.88
9187;BME280;7273;48.902;9.410;2023-08-17T10:10:40;98099.56;;;27.28;73.70
9187;BME280;7273;48.902;9.410;2023-08-17T10:15:51;98102.22;;;27.68;72.72
9187;BME280;7273;48.902;9.410;2023-08-17T10:18:45;98101.69;;;27.49;73.11
9187;BME280;7273;48.902;9.410;2023-08-17T10:21:28;98095.81;;;27.57;73.38
9187;BME280;7273;48.902;9.410;2023-08-17T10:23:57;98100.91;;;27.52;73.82
9187;BME280;7273;48.902;9.410;2023-08-17T10:26:23;98100.50;;;27.50;74.07
9187;BME280;7273;48.902;9.410;2023-08-17T10:28:50;98098.09;;;27.48;73.85
9187;BME280;7273;48.902;9.410;2023-08-17T10:31:15;98096.53;;;27.47;74.02
9187;BME280;7273;48.902;9.410;2023-08-17T10:33:41;98095.84;;;27.64;73.64
9187;BME280;7273;48.902;9.410;2023-08-17T10:36:10;98084.66;;;27.54;74.03
9187;BME280;7273;48.902;9.410;2023-08-17T10:38:36;98094.97;;;27.53;73.97
9187;BME280;7273;48.902;9.410;2023-08-17T10:41:08;98093.81;;;27.54;73.47
9187;BME280;7273;48.902;9.410;2023-08-17T10:46:19;98089.16;;;27.76;73.50
9187;BME280;7273;48.902;9.410;2023-08-17T10:48:45;98090.78;;;27.81;73.03
9187;BME280;7273;48.902;9.410;2023-08-17T10:51:11;98096.34;;;27.81;72.90
9187;BME280;7273;48.902;9.410;2023-08-17T10:53:42;98094.38;;;27.85;72.59
9187;BME280;7273;48.902;9.410;2023-08-17T10:56:12;98089.22;;;27.87;72.30
9187;BME280;7273;48.902;9.410;2023-08-17T10:58:37;98100.84;;;27.96;72.42
9187;BME280;7273;48.902;9.410;2023-08-17T11:01:03;98090.13;;;28.05;72.43
9187;BME280;7273;48.902;9.410;2023-08-17T11:03:29;98096.53;;;28.09;72.39
9187;BME280;7273;48.902;9.410;2023-08-17T11:05:55;98084.22;;;28.20;71.91
9187;BME280;7273;48.902;9.410;2023-08-17T11:11:12;98085.16;;;28.49;70.79
9187;BME280;7273;48.902;9.410;2023-08-17T11:13:43;98080.81;;;28.55;71.22
9187;BME280;7273;48.902;9.410;2023-08-17T11:16:10;98080.03;;;28.68;71.11
9187;BME280;7273;48.902;9.410;2023-08-17T11:18:35;98075.69;;;28.71;71.17
9187;BME280;7273;48.902;9.410;2023-08-17T11:21:05;98078.47;;;28.81;71.06
9187;BME280;7273;48.902;9.410;2023-08-17T11:23:32;98079.66;;;28.91;70.63
9187;BME280;7273;48.902;9.410;2023-08-17T11:25:58;98076.50;;;28.99;70.56
9187;BME280;7273;48.902;9.410;2023-08-17T11:28:24;98077.72;;;29.09;70.59
9187;BME280;7273;48.902;9.410;2023-08-17T11:31:00;98067.78;;;29.12;70.16
9187;BME280;7273;48.902;9.410;2023-08-17T11:33:26;98057.03;;;29.17;70.17
9187;BME280;7273;48.902;9.410;2023-08-17T11:36:00;98069.78;;;29.11;70.10
9187;BME280;7273;48.902;9.410;2023-08-17T11:38:30;98060.59;;;29.14;69.93
9187;BME280;7273;48.902;9.410;2023-08-17T11:40:57;98055.84;;;29.22;69.61
9187;BME280;7273;48.902;9.410;2023-08-17T11:43:23;98060.63;;;29.25;69.63
9187;BME280;7273;48.902;9.410;2023-08-17T11:45:49;98057.03;;;29.28;69.78
9187;BME280;7273;48.902;9.410;2023-08-17T11:48:14;98049.44;;;29.35;69.67
9187;BME280;7273;48.902;9.410;2023-08-17T11:50:42;98051.81;;;29.37;69.80
9187;BME280;7273;48.902;9.410;2023-08-17T11:53:07;98049.03;;;29.33;69.81
9187;BME280;7273;48.902;9.410;2023-08-17T11:55:33;98051.06;;;29.36;69.55
9187;BME280;7273;48.902;9.410;2023-08-17T11:57:58;98053.84;;;29.36;69.63
9187;BME280;7273;48.902;9.410;2023-08-17T12:00:24;98056.63;;;29.40;69.60
9187;BME280;7273;48.902;9.410;2023-08-17T12:02:51;98059.78;;;29.42;69.52
9187;BME280;7273;48.902;9.410;2023-08-17T12:05:21;98058.59;;;29.46;68.87
9187;BME280;7273;48.902;9.410;2023-08-17T12:07:52;98071.75;;;29.32;69.15
9187;BME280;7273;48.902;9.410;2023-08-17T12:10:19;98071.75;;;29.21;69.70
9187;BME280;7273;48.902;9.410;2023-08-17T12:12:46;98073.34;;;29.22;69.66
9187;BME280;7273;48.902;9.410;2023-08-17T12:15:12;98082.09;;;29.21;69.30
9187;BME280;7273;48.902;9.410;2023-08-17T12:17:45;98075.34;;;29.15;69.14
9187;BME280;7273;48.902;9.410;2023-08-17T12:20:15;98067.00;;;29.15;69.02
9187;BME280;7273;48.902;9.410;2023-08-17T12:22:41;98073.38;;;29.12;69.18
9187;BME280;7273;48.902;9.410;2023-08-17T12:25:08;98080.50;;;29.09;69.38
9187;BME280;7273;48.902;9.410;2023-08-17T12:27:34;98086.84;;;29.02;69.36
9187;BME280;7273;48.902;9.410;2023-08-17T12:29:59;98089.63;;;28.92;69.08
9187;BME280;7273;48.902;9.410;2023-08-17T12:32:24;98094.78;;;28.83;69.30
9187;BME280;7273;48.902;9.410;2023-08-17T12:34:50;98084.41;;;28.73;69.22
9187;BME280;7273;48.902;9.410;2023-08-17T12:37:20;98079.25;;;28.71;68.98
9187;BME280;7273;48.902;9.410;2023-08-17T12:39:49;98061.72;;;28.60;69.23
9187;BME280;7273;48.902;9.410;2023-08-17T12:42:14;98074.84;;;28.49;69.35
9187;BME280;7273;48.902;9.410;2023-08-17T12:44:41;98074.78;;;28.42;69.75
9187;BME280;7273;48.902;9.410;2023-08-17T12:47:06;98064.81;;;28.34;69.70
9187;BME280;7273;48.902;9.410;2023-08-17T12:49:32;98064.38;;;28.29;69.80
9187;BME280;7273;48.902;9.410;2023-08-17T12:51:57;98067.56;;;28.24;69.47
9187;BME280;7273;48.902;9.410;2023-08-17T12:54:22;98071.91;;;28.18;69.28
9187;BME280;7273;48.902;9.410;2023-08-17T12:56:48;98091.31;;;28.07;69.28
9187;BME280;7273;48.902;9.410;2023-08-17T12:59:13;98097.69;;;28.04;69.12
9187;BME280;7273;48.902;9.410;2023-08-17T13:01:39;98105.97;;;27.94;69.20
9187;BME280;7273;48.902;9.410;2023-08-17T13:04:05;98107.09;;;27.86;69.08
9187;BME280;7273;48.902;9.410;2023-08-17T13:06:31;98110.63;;;27.76;69.04
9187;BME280;7273;48.902;9.410;2023-08-17T13:08:56;98106.97;;;27.68;68.89
9187;BME280;7273;48.902;9.410;2023-08-17T13:11:22;98114.13;;;27.65;68.94
9187;BME280;7273;48.902;9.410;2023-08-17T13:13:47;98108.50;;;27.58;68.94
9187;BME280;7273;48.902;9.410;2023-08-17T13:16:13;98098.91;;;27.49;69.15
9187;BME280;7273;48.902;9.410;2023-08-17T13:18:38;98093.28;;;27.42;69.10
9187;BME280;7273;48.902;9.410;2023-08-17T13:21:03;98102.00;;;27.33;69.31
9187;BME280;7273;48.902;9.410;2023-08-17T13:23:29;98111.00;;;27.23;69.21
9187;BME280;7273;48.902;9.410;2023-08-17T13:25:54;98122.50;;;27.22;69.21
9187;BME280;7273;48.902;9.410;2023-08-17T13:28:20;98112.47;;;27.14;69.29
9187;BME280;7273;48.902;9.410;2023-08-17T13:30:45;98108.84;;;27.06;69.04
9187;BME280;7273;48.902;9.410;2023-08-17T13:33:11;98097.72;;;27.03;69.14